sensor_id;sensor_type;location;lat;lon;timestamp;P1;durP1;ratioP1;P2;durP2;ratioP2
68126;SDS011;54931;52.098;21.006;2023-04-24T00:01:28;17.10;;;9.90;;
68126;SDS011;54931;52.098;21.006;2023-04-24T00:03:56;14.40;;;8.70;;
68126;SDS011;54931;52.098;21.006;2023-04-24T00:06:26;13.70;;;7.80;;
68126;SDS011;54931;52.098;21.006;2023-04-24T00:09:00;16.50;;;8.40;;
68126;SDS011;54931;52.098;21.006;2023-04-24T00:11:29;17.00;;;9.80;;
68126;SDS011;54931;52.098;21.006;2023-04-24T00:13:57;18.40;;;10.60;;
68126;SDS011;54931;52.098;21.006;2023-04-24T00:16:24;18.30;;;9.40;;
68126;SDS011;54931;52.098;21.006;2023-04-24T00:18:52;16.30;;;10.20;;
68126;SDS011;54931;52.098;21.006;2023-04-24T00:21:23;16.80;;;9.70;;
68126;SDS011;54931;52.098;21.006;2023-04-24T00:23:52;13.70;;;8.40;;
68126;SDS011;54931;52.098;21.006;2023-04-24T00:26:20;19.80;;;9.90;;
68126;SDS011;54931;52.098;21.006;2023-04-24T00:28:49;15.30;;;9.50;;
68126;SDS011;54931;52.098;21.006;2023-04-24T00:31:17;18.40;;;10.00;;
68126;SDS011;54931;52.098;21.006;2023-04-24T00:33:45;16.80;;;8.70;;
68126;SDS011;54931;52.098;21.006;2023-04-24T00:36:12;18.10;;;10.00;;
68126;SDS011;54931;52.098;21.006;2023-04-24T00:38:40;15.80;;;9.20;;
68126;SDS011;54931;52.098;21.006;2023-04-24T00:41:08;18.30;;;9.70;;
68126;SDS011;54931;52.098;21.006;2023-04-24T00:43:36;16.80;;;8.00;;
68126;SDS011;54931;52.098;21.006;2023-04-24T00:46:03;16.10;;;9.10;;
68126;SDS011;54931;52.098;21.006;2023-04-24T00:48:31;15.10;;;9.10;;
68126;SDS011;54931;52.098;21.006;2023-04-24T00:50:59;18.40;;;9.30;;
68126;SDS011;54931;52.098;21.006;2023-04-24T00:53:27;18.90;;;10.60;;
68126;SDS011;54931;52.098;21.006;2023-04-24T00:55:54;18.50;;;9.60;;
68126;SDS011;54931;52.098;21.006;2023-04-24T00:58:22;21.90;;;10.70;;
68126;SDS011;54931;52.098;21.006;2023-04-24T01:00:51;17.60;;;9.70;;
68126;SDS011;54931;52.098;21.006;2023-04-24T01:03:22;19.30;;;10.40;;
68126;SDS011;54931;52.098;21.006;2023-04-24T01:05:56;19.80;;;11.20;;
68126;SDS011;54931;52.098;21.006;2023-04-24T01:08:24;19.70;;;11.00;;
68126;SDS011;54931;52.098;21.006;2023-04-24T01:10:57;23.40;;;12.40;;
68126;SDS011;54931;52.098;21.006;2023-04-24T01:13:24;26.80;;;12.20;;
68126;SDS011;54931;52.098;21.006;2023-04-24T01:15:52;22.20;;;11.20;;
68126;SDS011;54931;52.098;21.006;2023-04-24T01:18:20;19.60;;;10.20;;
68126;SDS011;54931;52.098;21.006;2023-04-24T01:20:54;20.00;;;10.50;;
68126;SDS011;54931;52.098;21.006;2023-04-24T01:23:25;19.50;;;11.60;;
68126;SDS011;54931;52.098;21.006;2023-04-24T01:25:54;22.70;;;11.50;;
68126;SDS011;54931;52.098;21.006;2023-04-24T01:28:22;17.30;;;10.30;;
68126;SDS011;54931;52.098;21.006;2023-04-24T01:30:50;20.30;;;11.50;;
68126;SDS011;54931;52.098;21.006;2023-04-24T01:33:20;20.00;;;10.70;;
68126;SDS011;54931;52.098;21.006;2023-04-24T01:35:49;18.10;;;10.60;;
68126;SDS011;54931;52.098;21.006;2023-04-24T01:38:17;17.10;;;10.00;;
68126;SDS011;54931;52.098;21.006;2023-04-24T01:40:46;21.00;;;12.30;;
68126;SDS011;54931;52.098;21.006;2023-04-24T01:43:14;20.70;;;11.00;;
68126;SDS011;54931;52.098;21.006;2023-04-24T01:45:41;19.60;;;11.10;;
68126;SDS011;54931;52.098;21.006;2023-04-24T01:48:09;19.60;;;11.40;;
68126;SDS011;54931;52.098;21.006;2023-04-24T01:50:39;14.20;;;8.50;;
68126;SDS011;54931;52.098;21.006;2023-04-24T01:53:07;17.40;;;10.50;;
68126;SDS011;54931;52.098;21.006;2023-04-24T01:55:34;17.10;;;10.00;;
68126;SDS011;54931;52.098;21.006;2023-04-24T01:58:02;18.30;;;10.20;;
68126;SDS011;54931;52.098;21.006;2023-04-24T02:00:30;19.40;;;10.30;;
68126;SDS011;54931;52.098;21.006;2023-04-24T02:02:57;17.00;;;9.40;;
68126;SDS011;54931;52.098;21.006;2023-04-24T02:05:25;20.60;;;10.80;;
68126;SDS011;54931;52.098;21.006;2023-04-24T02:07:53;18.50;;;10.10;;
68126;SDS011;54931;52.098;21.006;2023-04-24T02:10:21;17.30;;;11.00;;
68126;SDS011;54931;52.098;21.006;2023-04-24T02:12:49;17.60;;;10.30;;
68126;SDS011;54931;52.098;21.006;2023-04-24T02:15:16;21.00;;;11.40;;
68126;SDS011;54931;52.098;21.006;2023-04-24T02:17:45;19.40;;;10.40;;
68126;SDS011;54931;52.098;21.006;2023-04-24T02:20:12;20.90;;;10.80;;
68126;SDS011;54931;52.098;21.006;2023-04-24T02:22:41;18.50;;;10.90;;
68126;SDS011;54931;52.098;21.006;2023-04-24T02:25:08;21.60;;;11.50;;
68126;SDS011;54931;52.098;21.006;2023-04-24T02:27:36;22.70;;;11.90;;
68126;SDS011;54931;52.098;21.006;2023-04-24T02:30:05;17.80;;;11.00;;
68126;SDS011;54931;52.098;21.006;2023-04-24T02:32:34;20.10;;;10.20;;
68126;SDS011;54931;52.098;21.006;2023-04-24T02:35:03;17.40;;;10.30;;
68126;SDS011;54931;52.098;21.006;2023-04-24T02:37:31;20.30;;;10.60;;
68126;SDS011;54931;52.098;21.006;2023-04-24T02:39:59;18.30;;;10.10;;
68126;SDS011;54931;52.098;21.006;2023-04-24T02:42:26;16.70;;;10.30;;
68126;SDS011;54931;52.098;21.006;2023-04-24T02:44:53;18.90;;;10.80;;
68126;SDS011;54931;52.098;21.006;2023-04-24T02:47:21;20.10;;;11.90;;
68126;SDS011;54931;52.098;21.006;2023-04-24T02:52:16;20.20;;;11.50;;
68126;SDS011;54931;52.098;21.006;2023-04-24T02:54:44;22.10;;;12.10;;
68126;SDS011;54931;52.098;21.006;2023-04-24T02:57:11;20.20;;;11.50;;
68126;SDS011;54931;52.098;21.006;2023-04-24T02:59:39;31.40;;;12.90;;
68126;SDS011;54931;52.098;21.006;2023-04-24T03:02:06;20.60;;;10.10;;
68126;SDS011;54931;52.098;21.006;2023-04-24T03:04:34;18.70;;;9.50;;
68126;SDS011;54931;52.098;21.006;2023-04-24T03:07:02;20.10;;;10.80;;
68126;SDS011;54931;52.098;21.006;2023-04-24T03:09:29;24.50;;;12.70;;
68126;SDS011;54931;52.098;21.006;2023-04-24T03:11:57;23.00;;;12.60;;
68126;SDS011;54931;52.098;21.006;2023-04-24T03:14:25;23.60;;;12.60;;
68126;SDS011;54931;52.098;21.006;2023-04-24T03:16:52;18.50;;;11.20;;
68126;SDS011;54931;52.098;21.006;2023-04-24T03:19:20;21.70;;;11.30;;
68126;SDS011;54931;52.098;21.006;2023-04-24T03:21:48;21.00;;;11.20;;
68126;SDS011;54931;52.098;21.006;2023-04-24T03:24:16;21.20;;;10.60;;
68126;SDS011;54931;52.098;21.006;2023-04-24T03:26:44;18.70;;;10.10;;
68126;SDS011;54931;52.098;21.006;2023-04-24T03:29:12;22.90;;;12.70;;
68126;SDS011;54931;52.098;21.006;2023-04-24T03:31:40;26.80;;;13.00;;
68126;SDS011;54931;52.098;21.006;2023-04-24T03:34:07;19.70;;;12.00;;
68126;SDS011;54931;52.098;21.006;2023-04-24T03:36:35;21.90;;;11.60;;
68126;SDS011;54931;52.098;21.006;2023-04-24T03:39:02;19.10;;;10.70;;
68126;SDS011;54931;52.098;21.006;2023-04-24T03:41:31;18.90;;;10.90;;
68126;SDS011;54931;52.098;21.006;2023-04-24T03:43:58;20.50;;;10.40;;
68126;SDS011;54931;52.098;21.006;2023-04-24T03:46:29;21.20;;;12.50;;
68126;SDS011;54931;52.098;21.006;2023-04-24T03:48:56;21.00;;;12.00;;
68126;SDS011;54931;52.098;21.006;2023-04-24T03:51:24;17.10;;;9.10;;
68126;SDS011;54931;52.098;21.006;2023-04-24T03:53:52;22.30;;;10.90;;
68126;SDS011;54931;52.098;21.006;2023-04-24T03:56:20;19.70;;;10.90;;
68126;SDS011;54931;52.098;21.006;2023-04-24T03:58:47;19.50;;;10.80;;
68126;SDS011;54931;52.098;21.006;2023-04-24T04:01:15;21.50;;;11.20;;
68126;SDS011;54931;52.098;21.006;2023-04-24T04:03:43;20.60;;;10.30;;
68126;SDS011;54931;52.098;21.006;2023-04-24T04:06:11;18.20;;;10.30;;
68126;SDS011;54931;52.098;21.006;2023-04-24T04:08:40;21.60;;;12.10;;
68126;SDS011;54931;52.098;21.006;2023-04-24T04:11:07;16.70;;;8.80;;
68126;SDS011;54931;52.098;21.006;2023-04-24T04:13:35;18.20;;;10.50;;
68126;SDS011;54931;52.098;21.006;2023-04-24T04:16:02;17.90;;;10.10;;
68126;SDS011;54931;52.098;21.006;2023-04-24T04:18:30;19.90;;;9.30;;
68126;SDS011;54931;52.098;21.006;2023-04-24T04:20:58;17.90;;;10.00;;
68126;SDS011;54931;52.098;21.006;2023-04-24T04:23:26;18.00;;;7.70;;
68126;SDS011;54931;52.098;21.006;2023-04-24T04:25:53;20.80;;;11.00;;
68126;SDS011;54931;52.098;21.006;2023-04-24T04:28:22;19.40;;;9.60;;
68126;SDS011;54931;52.098;21.006;2023-04-24T04:30:49;20.10;;;10.00;;
68126;SDS011;54931;52.098;21.006;2023-04-24T04:33:21;22.90;;;11.30;;
68126;SDS011;54931;52.098;21.006;2023-04-24T04:35:49;17.40;;;9.60;;
68126;SDS011;54931;52.098;21.006;2023-04-24T04:38:20;18.10;;;10.70;;
68126;SDS011;54931;52.098;21.006;2023-04-24T04:40:47;17.40;;;9.30;;
68126;SDS011;54931;52.098;21.006;2023-04-24T04:43:15;18.80;;;10.30;;
68126;SDS011;54931;52.098;21.006;2023-04-24T04:45:43;11.90;;;6.40;;
68126;SDS011;54931;52.098;21.006;2023-04-24T04:48:12;20.00;;;10.10;;
68126;SDS011;54931;52.098;21.006;2023-04-24T04:50:41;17.10;;;11.00;;
68126;SDS011;54931;52.098;21.006;2023-04-24T04:53:08;22.80;;;11.40;;
68126;SDS011;54931;52.098;21.006;2023-04-24T04:55:37;20.00;;;11.50;;
68126;SDS011;54931;52.098;21.006;2023-04-24T04:58:06;16.60;;;9.60;;
68126;SDS011;54931;52.098;21.006;2023-04-24T05:00:33;17.40;;;8.70;;
68126;SDS011;54931;52.098;21.006;2023-04-24T05:03:04;16.80;;;10.30;;
68126;SDS011;54931;52.098;21.006;2023-04-24T05:05:32;17.70;;;10.20;;
68126;SDS011;54931;52.098;21.006;2023-04-24T05:08:00;20.30;;;11.30;;
68126;SDS011;54931;52.098;21.006;2023-04-24T05:10:27;15.90;;;9.40;;
68126;SDS011;54931;52.098;21.006;2023-04-24T05:12:55;19.40;;;11.10;;
68126;SDS011;54931;52.098;21.006;2023-04-24T05:15:23;21.80;;;11.10;;
68126;SDS011;54931;52.098;21.006;2023-04-24T05:17:51;20.90;;;11.40;;
68126;SDS011;54931;52.098;21.006;2023-04-24T05:20:18;15.40;;;9.40;;
68126;SDS011;54931;52.098;21.006;2023-04-24T05:22:46;16.20;;;9.40;;
68126;SDS011;54931;52.098;21.006;2023-04-24T05:25:14;17.30;;;10.20;;
68126;SDS011;54931;52.098;21.006;2023-04-24T05:27:42;16.40;;;10.50;;
68126;SDS011;54931;52.098;21.006;2023-04-24T05:30:10;18.60;;;11.50;;
68126;SDS011;54931;52.098;21.006;2023-04-24T05:32:37;20.10;;;11.80;;
68126;SDS011;54931;52.098;21.006;2023-04-24T05:35:06;22.30;;;10.90;;
68126;SDS011;54931;52.098;21.006;2023-04-24T05:37:35;19.00;;;11.00;;
68126;SDS011;54931;52.098;21.006;2023-04-24T05:40:03;16.60;;;10.20;;
68126;SDS011;54931;52.098;21.006;2023-04-24T05:42:32;16.60;;;9.10;;
68126;SDS011;54931;52.098;21.006;2023-04-24T05:45:00;21.90;;;11.10;;
68126;SDS011;54931;52.098;21.006;2023-04-24T05:47:27;22.20;;;11.70;;
68126;SDS011;54931;52.098;21.006;2023-04-24T05:49:57;18.20;;;9.40;;
68126;SDS011;54931;52.098;21.006;2023-04-24T05:52:25;14.80;;;8.80;;
68126;SDS011;54931;52.098;21.006;2023-04-24T05:54:52;15.60;;;10.80;;
68126;SDS011;54931;52.098;21.006;2023-04-24T05:57:20;18.50;;;10.40;;
68126;SDS011;54931;52.098;21.006;2023-04-24T05:59:48;15.30;;;10.30;;
68126;SDS011;54931;52.098;21.006;2023-04-24T06:02:16;21.30;;;11.10;;
68126;SDS011;54931;52.098;21.006;2023-04-24T06:04:44;15.00;;;8.50;;
68126;SDS011;54931;52.098;21.006;2023-04-24T06:07:14;16.30;;;9.20;;
68126;SDS011;54931;52.098;21.006;2023-04-24T06:09:41;15.50;;;8.90;;
68126;SDS011;54931;52.098;21.006;2023-04-24T06:12:09;15.10;;;9.20;;
68126;SDS011;54931;52.098;21.006;2023-04-24T06:14:37;16.90;;;9.40;;
68126;SDS011;54931;52.098;21.006;2023-04-24T06:17:04;14.90;;;9.20;;
68126;SDS011;54931;52.098;21.006;2023-04-24T06:19:32;12.90;;;8.50;;
68126;SDS011;54931;52.098;21.006;2023-04-24T06:22:00;13.80;;;9.30;;
68126;SDS011;54931;52.098;21.006;2023-04-24T06:24:28;17.60;;;9.60;;
68126;SDS011;54931;52.098;21.006;2023-04-24T06:26:56;16.20;;;9.50;;
68126;SDS011;54931;52.098;21.006;2023-04-24T06:29:26;15.20;;;8.90;;
68126;SDS011;54931;52.098;21.006;2023-04-24T06:31:54;12.10;;;8.10;;
68126;SDS011;54931;52.098;21.006;2023-04-24T06:34:22;19.10;;;10.10;;
68126;SDS011;54931;52.098;21.006;2023-04-24T06:36:49;17.30;;;9.00;;
68126;SDS011;54931;52.098;21.006;2023-04-24T06:39:17;15.70;;;8.90;;
68126;SDS011;54931;52.098;21.006;2023-04-24T06:51:36;15.30;;;8.60;;
68126;SDS011;54931;52.098;21.006;2023-04-24T06:54:04;13.70;;;7.40;;
68126;SDS011;54931;52.098;21.006;2023-04-24T06:56:32;17.90;;;9.30;;
68126;SDS011;54931;52.098;21.006;2023-04-24T06:59:01;16.00;;;9.70;;
68126;SDS011;54931;52.098;21.006;2023-04-24T07:01:28;13.60;;;9.30;;
68126;SDS011;54931;52.098;21.006;2023-04-24T07:03:56;15.60;;;9.10;;
68126;SDS011;54931;52.098;21.006;2023-04-24T07:06:23;16.90;;;9.90;;
68126;SDS011;54931;52.098;21.006;2023-04-24T07:08:51;13.80;;;8.60;;
68126;SDS011;54931;52.098;21.006;2023-04-24T07:11:19;12.20;;;7.90;;
68126;SDS011;54931;52.098;21.006;2023-04-24T07:13:47;18.30;;;9.60;;
68126;SDS011;54931;52.098;21.006;2023-04-24T07:16:14;16.70;;;8.90;;
68126;SDS011;54931;52.098;21.006;2023-04-24T07:18:42;23.40;;;9.90;;
68126;SDS011;54931;52.098;21.006;2023-04-24T07:21:09;20.20;;;9.50;;
68126;SDS011;54931;52.098;21.006;2023-04-24T07:23:37;16.60;;;9.20;;
68126;SDS011;54931;52.098;21.006;2023-04-24T07:26:04;19.40;;;9.60;;
68126;SDS011;54931;52.098;21.006;2023-04-24T07:38:22;14.30;;;9.40;;
68126;SDS011;54931;52.098;21.006;2023-04-24T07:40:49;16.10;;;8.80;;
68126;SDS011;54931;52.098;21.006;2023-04-24T07:43:19;14.50;;;8.40;;
68126;SDS011;54931;52.098;21.006;2023-04-24T07:45:48;13.10;;;8.10;;
68126;SDS011;54931;52.098;21.006;2023-04-24T07:48:16;14.10;;;9.50;;
68126;SDS011;54931;52.098;21.006;2023-04-24T07:50:45;13.50;;;8.20;;
68126;SDS011;54931;52.098;21.006;2023-04-24T07:53:12;16.60;;;8.20;;
68126;SDS011;54931;52.098;21.006;2023-04-24T08:03:02;12.20;;;7.70;;
68126;SDS011;54931;52.098;21.006;2023-04-24T08:05:30;14.00;;;9.50;;
68126;SDS011;54931;52.098;21.006;2023-04-24T08:07:58;13.90;;;9.60;;
68126;SDS011;54931;52.098;21.006;2023-04-24T08:15:22;10.50;;;8.10;;
68126;SDS011;54931;52.098;21.006;2023-04-24T08:17:50;16.90;;;9.10;;
68126;SDS011;54931;52.098;21.006;2023-04-24T08:20:17;16.10;;;9.50;;
68126;SDS011;54931;52.098;21.006;2023-04-24T08:30:11;11.80;;;8.80;;
68126;SDS011;54931;52.098;21.006;2023-04-24T08:40:10;12.80;;;7.80;;
68126;SDS011;54931;52.098;21.006;2023-04-24T08:42:44;14.80;;;7.80;;
68126;SDS011;54931;52.098;21.006;2023-04-24T08:45:13;11.90;;;8.20;;
68126;SDS011;54931;52.098;21.006;2023-04-24T08:47:41;16.50;;;10.10;;
68126;SDS011;54931;52.098;21.006;2023-04-24T08:50:11;13.90;;;9.30;;
68126;SDS011;54931;52.098;21.006;2023-04-24T08:52:40;11.60;;;8.70;;
68126;SDS011;54931;52.098;21.006;2023-04-24T08:55:09;13.60;;;7.20;;
68126;SDS011;54931;52.098;21.006;2023-04-24T08:57:39;10.10;;;6.10;;
68126;SDS011;54931;52.098;21.006;2023-04-24T09:00:07;11.10;;;7.90;;
68126;SDS011;54931;52.098;21.006;2023-04-24T09:02:38;11.50;;;7.80;;
68126;SDS011;54931;52.098;21.006;2023-04-24T09:05:09;13.90;;;8.60;;
68126;SDS011;54931;52.098;21.006;2023-04-24T09:07:39;10.60;;;7.80;;
68126;SDS011;54931;52.098;21.006;2023-04-24T09:10:11;10.80;;;7.80;;
68126;SDS011;54931;52.098;21.006;2023-04-24T09:12:40;12.20;;;7.60;;
68126;SDS011;54931;52.098;21.006;2023-04-24T09:15:09;11.90;;;7.90;;
68126;SDS011;54931;52.098;21.006;2023-04-24T09:17:38;12.20;;;7.60;;
68126;SDS011;54931;52.098;21.006;2023-04-24T09:20:06;12.30;;;7.40;;
68126;SDS011;54931;52.098;21.006;2023-04-24T09:22:36;10.10;;;6.50;;
68126;SDS011;54931;52.098;21.006;2023-04-24T09:25:08;12.00;;;7.40;;
68126;SDS011;54931;52.098;21.006;2023-04-24T09:27:36;10.00;;;7.90;;
68126;SDS011;54931;52.098;21.006;2023-04-24T09:30:09;10.40;;;7.80;;
68126;SDS011;54931;52.098;21.006;2023-04-24T09:32:38;11.90;;;7.40;;
68126;SDS011;54931;52.098;21.006;2023-04-24T09:35:14;10.50;;;7.00;;
68126;SDS011;54931;52.098;21.006;2023-04-24T09:37:46;8.90;;;6.60;;
68126;SDS011;54931;52.098;21.006;2023-04-24T09:40:18;8.30;;;5.90;;
68126;SDS011;54931;52.098;21.006;2023-04-24T09:42:55;7.60;;;5.90;;
68126;SDS011;54931;52.098;21.006;2023-04-24T09:45:28;8.40;;;6.30;;
68126;SDS011;54931;52.098;21.006;2023-04-24T09:48:03;14.80;;;7.30;;
68126;SDS011;54931;52.098;21.006;2023-04-24T09:50:32;12.10;;;7.50;;
68126;SDS011;54931;52.098;21.006;2023-04-24T09:53:04;11.80;;;7.60;;
68126;SDS011;54931;52.098;21.006;2023-04-24T09:55:32;10.80;;;7.40;;
68126;SDS011;54931;52.098;21.006;2023-04-24T09:58:01;11.10;;;7.90;;
68126;SDS011;54931;52.098;21.006;2023-04-24T10:00:32;13.70;;;7.50;;
68126;SDS011;54931;52.098;21.006;2023-04-24T10:03:02;11.40;;;7.50;;
68126;SDS011;54931;52.098;21.006;2023-04-24T10:05:35;8.90;;;6.50;;
68126;SDS011;54931;52.098;21.006;2023-04-24T10:08:09;8.00;;;6.20;;
68126;SDS011;54931;52.098;21.006;2023-04-24T10:10:45;8.70;;;6.50;;
68126;SDS011;54931;52.098;21.006;2023-04-24T10:15:45;11.40;;;6.50;;
68126;SDS011;54931;52.098;21.006;2023-04-24T10:18:17;10.50;;;7.00;;
68126;SDS011;54931;52.098;21.006;2023-04-24T10:20:47;8.60;;;7.30;;
68126;SDS011;54931;52.098;21.006;2023-04-24T10:23:16;11.90;;;7.20;;
68126;SDS011;54931;52.098;21.006;2023-04-24T10:25:46;8.90;;;6.90;;
68126;SDS011;54931;52.098;21.006;2023-04-24T10:28:18;13.40;;;7.10;;
68126;SDS011;54931;52.098;21.006;2023-04-24T10:30:46;8.80;;;6.70;;
68126;SDS011;54931;52.098;21.006;2023-04-24T10:33:16;10.00;;;6.90;;
68126;SDS011;54931;52.098;21.006;2023-04-24T10:35:45;10.10;;;6.30;;
68126;SDS011;54931;52.098;21.006;2023-04-24T10:38:24;11.20;;;6.80;;
68126;SDS011;54931;52.098;21.006;2023-04-24T10:41:10;8.70;;;6.10;;
68126;SDS011;54931;52.098;21.006;2023-04-24T10:43:47;8.10;;;6.80;;
68126;SDS011;54931;52.098;21.006;2023-04-24T10:46:38;7.50;;;5.60;;
68126;SDS011;54931;52.098;21.006;2023-04-24T10:49:07;9.50;;;6.90;;
68126;SDS011;54931;52.098;21.006;2023-04-24T10:51:52;7.80;;;6.10;;
68126;SDS011;54931;52.098;21.006;2023-04-24T10:59:51;10.10;;;6.30;;
68126;SDS011;54931;52.098;21.006;2023-04-24T11:02:39;9.30;;;6.40;;
68126;SDS011;54931;52.098;21.006;2023-04-24T11:05:10;7.90;;;5.80;;
68126;SDS011;54931;52.098;21.006;2023-04-24T11:08:10;9.00;;;5.90;;
68126;SDS011;54931;52.098;21.006;2023-04-24T11:10:47;8.50;;;5.90;;
68126;SDS011;54931;52.098;21.006;2023-04-24T11:14:00;10.60;;;6.30;;
68126;SDS011;54931;52.098;21.006;2023-04-24T11:16:54;9.40;;;6.70;;
68126;SDS011;54931;52.098;21.006;2023-04-24T11:22:04;8.60;;;5.70;;
68126;SDS011;54931;52.098;21.006;2023-04-24T11:27:21;8.50;;;6.00;;
68126;SDS011;54931;52.098;21.006;2023-04-24T11:29:59;9.70;;;6.30;;
68126;SDS011;54931;52.098;21.006;2023-04-24T11:32:37;9.80;;;5.90;;
68126;SDS011;54931;52.098;21.006;2023-04-24T11:35:15;6.80;;;5.20;;
68126;SDS011;54931;52.098;21.006;2023-04-24T11:37:46;9.80;;;6.50;;
68126;SDS011;54931;52.098;21.006;2023-04-24T11:40:17;9.00;;;6.50;;
68126;SDS011;54931;52.098;21.006;2023-04-24T11:42:48;9.30;;;6.00;;
68126;SDS011;54931;52.098;21.006;2023-04-24T11:45:25;9.10;;;6.60;;
68126;SDS011;54931;52.098;21.006;2023-04-24T11:47:54;12.60;;;6.10;;
68126;SDS011;54931;52.098;21.006;2023-04-24T11:50:23;8.30;;;5.90;;
68126;SDS011;54931;52.098;21.006;2023-04-24T11:52:56;13.60;;;5.90;;
68126;SDS011;54931;52.098;21.006;2023-04-24T11:55:26;9.60;;;6.90;;
68126;SDS011;54931;52.098;21.006;2023-04-24T11:57:57;12.00;;;6.70;;
68126;SDS011;54931;52.098;21.006;2023-04-24T12:00:31;9.30;;;5.30;;
68126;SDS011;54931;52.098;21.006;2023-04-24T12:03:12;10.60;;;6.80;;
68126;SDS011;54931;52.098;21.006;2023-04-24T12:05:40;9.40;;;5.90;;
68126;SDS011;54931;52.098;21.006;2023-04-24T12:08:08;8.10;;;6.30;;
68126;SDS011;54931;52.098;21.006;2023-04-24T12:10:35;9.40;;;6.20;;
68126;SDS011;54931;52.098;21.006;2023-04-24T12:13:03;10.20;;;6.30;;
68126;SDS011;54931;52.098;21.006;2023-04-24T12:15:30;9.60;;;6.50;;
68126;SDS011;54931;52.098;21.006;2023-04-24T12:17:58;8.90;;;6.10;;
68126;SDS011;54931;52.098;21.006;2023-04-24T12:20:31;9.90;;;6.10;;
68126;SDS011;54931;52.098;21.006;2023-04-24T12:23:00;9.40;;;6.70;;
68126;SDS011;54931;52.098;21.006;2023-04-24T12:25:32;8.70;;;6.20;;
68126;SDS011;54931;52.098;21.006;2023-04-24T12:30:33;10.00;;;5.10;;
68126;SDS011;54931;52.098;21.006;2023-04-24T12:35:34;14.20;;;4.20;;
68126;SDS011;54931;52.098;21.006;2023-04-24T12:38:09;14.10;;;4.70;;
68126;SDS011;54931;52.098;21.006;2023-04-24T12:45:48;10.50;;;4.40;;
68126;SDS011;54931;52.098;21.006;2023-04-24T12:48:16;6.80;;;3.30;;
68126;SDS011;54931;52.098;21.006;2023-04-24T12:50:44;9.20;;;3.40;;
68126;SDS011;54931;52.098;21.006;2023-04-24T12:53:11;20.20;;;5.00;;
68126;SDS011;54931;52.098;21.006;2023-04-24T12:55:43;13.60;;;4.50;;
68126;SDS011;54931;52.098;21.006;2023-04-24T12:58:12;18.90;;;4.30;;
68126;SDS011;54931;52.098;21.006;2023-04-24T13:00:41;9.80;;;3.80;;
68126;SDS011;54931;52.098;21.006;2023-04-24T13:03:10;14.30;;;4.70;;
68126;SDS011;54931;52.098;21.006;2023-04-24T13:05:38;6.90;;;4.10;;
68126;SDS011;54931;52.098;21.006;2023-04-24T13:08:06;8.40;;;3.80;;
68126;SDS011;54931;52.098;21.006;2023-04-24T13:10:34;12.70;;;4.40;;
68126;SDS011;54931;52.098;21.006;2023-04-24T13:13:02;8.60;;;4.60;;
68126;SDS011;54931;52.098;21.006;2023-04-24T13:15:30;5.00;;;3.70;;
68126;SDS011;54931;52.098;21.006;2023-04-24T13:17:58;7.00;;;4.10;;
68126;SDS011;54931;52.098;21.006;2023-04-24T13:20:25;9.20;;;4.50;;
68126;SDS011;54931;52.098;21.006;2023-04-24T13:22:53;7.50;;;4.60;;
68126;SDS011;54931;52.098;21.006;2023-04-24T13:25:20;8.30;;;4.30;;
68126;SDS011;54931;52.098;21.006;2023-04-24T13:27:49;7.30;;;3.70;;
68126;SDS011;54931;52.098;21.006;2023-04-24T13:30:18;6.40;;;3.60;;
68126;SDS011;54931;52.098;21.006;2023-04-24T13:32:46;5.90;;;4.30;;
68126;SDS011;54931;52.098;21.006;2023-04-24T13:37:42;6.50;;;4.50;;
68126;SDS011;54931;52.098;21.006;2023-04-24T13:40:10;9.80;;;4.60;;
68126;SDS011;54931;52.098;21.006;2023-04-24T13:42:40;6.10;;;3.60;;
68126;SDS011;54931;52.098;21.006;2023-04-24T13:45:08;5.40;;;4.20;;
68126;SDS011;54931;52.098;21.006;2023-04-24T13:47:37;6.90;;;4.20;;
68126;SDS011;54931;52.098;21.006;2023-04-24T13:50:08;7.60;;;4.00;;
68126;SDS011;54931;52.098;21.006;2023-04-24T13:52:36;7.00;;;4.30;;
68126;SDS011;54931;52.098;21.006;2023-04-24T13:55:05;6.90;;;4.00;;
68126;SDS011;54931;52.098;21.006;2023-04-24T13:57:33;6.20;;;4.90;;
68126;SDS011;54931;52.098;21.006;2023-04-24T14:00:01;10.00;;;5.30;;
68126;SDS011;54931;52.098;21.006;2023-04-24T14:02:31;8.90;;;5.40;;
68126;SDS011;54931;52.098;21.006;2023-04-24T14:04:58;5.90;;;4.60;;
68126;SDS011;54931;52.098;21.006;2023-04-24T14:07:27;7.30;;;5.40;;
68126;SDS011;54931;52.098;21.006;2023-04-24T14:09:55;6.80;;;5.00;;
68126;SDS011;54931;52.098;21.006;2023-04-24T14:12:24;7.50;;;4.80;;
68126;SDS011;54931;52.098;21.006;2023-04-24T14:14:51;7.60;;;4.60;;
68126;SDS011;54931;52.098;21.006;2023-04-24T14:17:19;8.40;;;4.30;;
68126;SDS011;54931;52.098;21.006;2023-04-24T14:19:46;13.00;;;4.60;;
68126;SDS011;54931;52.098;21.006;2023-04-24T14:22:14;5.60;;;4.00;;
68126;SDS011;54931;52.098;21.006;2023-04-24T14:24:42;6.80;;;4.20;;
68126;SDS011;54931;52.098;21.006;2023-04-24T14:27:10;5.50;;;4.40;;
68126;SDS011;54931;52.098;21.006;2023-04-24T14:29:38;6.30;;;3.90;;
68126;SDS011;54931;52.098;21.006;2023-04-24T14:32:06;7.50;;;3.90;;
68126;SDS011;54931;52.098;21.006;2023-04-24T14:34:33;5.80;;;3.80;;
68126;SDS011;54931;52.098;21.006;2023-04-24T14:37:01;5.00;;;3.50;;
68126;SDS011;54931;52.098;21.006;2023-04-24T14:39:29;6.50;;;3.70;;
68126;SDS011;54931;52.098;21.006;2023-04-24T14:41:56;6.60;;;3.40;;
68126;SDS011;54931;52.098;21.006;2023-04-24T14:44:24;5.60;;;3.80;;
68126;SDS011;54931;52.098;21.006;2023-04-24T14:46:52;6.20;;;3.80;;
68126;SDS011;54931;52.098;21.006;2023-04-24T14:49:20;7.30;;;4.10;;
68126;SDS011;54931;52.098;21.006;2023-04-24T14:51:48;6.10;;;3.90;;
68126;SDS011;54931;52.098;21.006;2023-04-24T14:54:15;6.30;;;3.60;;
68126;SDS011;54931;52.098;21.006;2023-04-24T14:56:43;7.60;;;3.70;;
68126;SDS011;54931;52.098;21.006;2023-04-24T14:59:11;4.80;;;3.80;;
68126;SDS011;54931;52.098;21.006;2023-04-24T15:01:38;6.10;;;3.90;;
68126;SDS011;54931;52.098;21.006;2023-04-24T15:04:06;4.90;;;3.80;;
68126;SDS011;54931;52.098;21.006;2023-04-24T15:06:34;5.00;;;3.50;;
68126;SDS011;54931;52.098;21.006;2023-04-24T15:09:02;6.90;;;4.10;;
68126;SDS011;54931;52.098;21.006;2023-04-24T15:11:29;6.60;;;3.80;;
68126;SDS011;54931;52.098;21.006;2023-04-24T15:13:57;5.70;;;3.80;;
68126;SDS011;54931;52.098;21.006;2023-04-24T15:16:25;10.20;;;4.10;;
68126;SDS011;54931;52.098;21.006;2023-04-24T15:18:52;5.80;;;3.90;;
68126;SDS011;54931;52.098;21.006;2023-04-24T15:21:20;10.50;;;4.20;;
68126;SDS011;54931;52.098;21.006;2023-04-24T15:23:48;4.20;;;3.70;;
68126;SDS011;54931;52.098;21.006;2023-04-24T15:26:17;6.00;;;4.00;;
68126;SDS011;54931;52.098;21.006;2023-04-24T15:28:45;9.10;;;3.90;;
68126;SDS011;54931;52.098;21.006;2023-04-24T15:31:13;5.30;;;4.00;;
68126;SDS011;54931;52.098;21.006;2023-04-24T15:33:41;11.00;;;3.90;;
68126;SDS011;54931;52.098;21.006;2023-04-24T15:36:09;5.70;;;4.20;;
68126;SDS011;54931;52.098;21.006;2023-04-24T15:38:37;6.10;;;3.70;;
68126;SDS011;54931;52.098;21.006;2023-04-24T15:41:05;7.20;;;3.70;;
68126;SDS011;54931;52.098;21.006;2023-04-24T15:43:33;8.70;;;4.10;;
68126;SDS011;54931;52.098;21.006;2023-04-24T15:46:03;8.90;;;4.00;;
68126;SDS011;54931;52.098;21.006;2023-04-24T15:48:31;5.90;;;4.00;;